Time;durP1;ratioP1;P1;durP2;ratioP2;P2;SDS_P1;SDS_P2;PMS_P1;PMS_P2;Temp;Humidity;BMP_temperature;BMP_pressure;BME280_temperature;BME280_humidity;BME280_pressure;Samples;Min_cycle;Max_cycle;Signal;HPM_P1;HPM_P2
2021/06/05 00:00:54;;;;;;;;;;;;;;;17.41;53.60;101453.17;1691807;83;20132;-77
2021/06/05 00:03:21;;;;;;;;;;;;;;;17.37;53.68;101454.63;1678901;83;20226;-77
2021/06/05 00:05:53;;;;;;;;;;;;;;;17.33;53.83;101456.92;1690840;83;20223;-77
2021/06/05 00:08:20;;;;;;;;;;;;;;;17.27;53.91;101460.58;1694080;83;20196;-77
2021/06/05 00:10:55;;;;;;;;;;;;;;;17.16;53.86;101461.34;1686796;83;20175;-77
2021/06/05 00:13:25;;;;;;;;;;;;;;;17.07;53.96;101459.04;1688498;83;20199;-77
2021/06/05 00:15:52;;;;;;;;;;;;;;;17.04;54.07;101454.76;1689590;83;20191;-77
2021/06/05 00:18:18;;;;;;;;;;;;;;;17.03;54.14;101456.11;1688028;83;20135;-77
2021/06/05 00:20:44;;;;;;;;;;;;;;;16.99;54.12;101455.34;1686759;83;20191;-77
2021/06/05 00:23:13;;;;;;;;;;;;;;;16.96;54.17;101454.57;1691888;83;20132;-76
2021/06/05 00:25:40;;;;;;;;;;;;;;;16.94;54.26;101447.23;1698846;83;20095;-76
2021/06/05 00:28:06;;;;;;;;;;;;;;;16.90;54.31;101442.55;1694739;83;20106;-76
2021/06/05 00:30:33;;;;;;;;;;;;;;;16.81;54.39;101445.41;1691605;83;20108;-76
2021/06/05 00:32:59;;;;;;;;;;;;;;;16.73;54.45;101444.77;1688648;83;20120;-77
2021/06/05 00:35:27;;;;;;;;;;;;;;;16.70;54.59;101440.94;1707811;82;20128;-77
2021/06/05 00:37:54;;;;;;;;;;;;;;;16.64;54.55;101432.83;1677862;83;20126;-77
2021/06/05 00:40:23;;;;;;;;;;;;;;;16.60;54.62;101429.04;1680551;85;20165;-77
2021/06/05 00:42:50;;;;;;;;;;;;;;;16.54;54.65;101423.53;1686169;83;20100;-77
2021/06/05 00:45:17;;;;;;;;;;;;;;;16.43;54.68;101426.89;1688512;84;20091;-77
2021/06/05 00:47:43;;;;;;;;;;;;;;;16.36;54.67;101428.80;1681061;84;20083;-77
2021/06/05 00:50:11;;;;;;;;;;;;;;;16.32;54.77;101422.41;1691762;83;20104;-77
2021/06/05 00:52:37;;;;;;;;;;;;;;;16.29;54.91;101422.03;1693276;83;20143;-77
2021/06/05 00:55:05;;;;;;;;;;;;;;;16.25;54.89;101420.85;1692321;83;20120;-77
2021/06/05 00:57:31;;;;;;;;;;;;;;;16.20;54.95;101419.22;1696623;83;20135;-77
2021/06/05 00:59:57;;;;;;;;;;;;;;;16.16;54.94;101424.56;1686697;83;20271;-77
2021/06/05 01:02:23;;;;;;;;;;;;;;;16.11;55.03;101419.94;1695295;83;20231;-77
2021/06/05 01:04:49;;;;;;;;;;;;;;;16.02;55.05;101422.34;1683488;84;20330;-77
2021/06/05 01:07:20;;;;;;;;;;;;;;;15.94;55.08;101422.12;1677964;84;20482;-77
2021/06/05 01:10:00;;;;;;;;;;;;;;;15.86;55.33;101417.95;1661034;85;20212;-77
2021/06/05 01:12:53;;;;;;;;;;;;;;;15.83;55.41;101417.17;1677210;85;20180;-77
2021/06/05 01:15:28;;;;;;;;;;;;;;;15.77;55.43;101419.48;1663934;84;20210;-77
2021/06/05 01:17:58;;;;;;;;;;;;;;;15.76;55.58;101419.52;1668397;84;20190;-77
2021/06/05 01:20:36;;;;;;;;;;;;;;;15.73;55.60;101412.63;1610554;88;20430;-77
2021/06/05 01:23:24;;;;;;;;;;;;;;;15.69;55.67;101409.68;1668619;84;20243;-77
2021/06/05 01:26:27;;;;;;;;;;;;;;;15.67;55.67;101412.77;1676997;84;20189;-77
2021/06/05 01:28:58;;;;;;;;;;;;;;;15.65;55.68;101407.19;1672003;85;20211;-76
2021/06/05 01:31:27;;;;;;;;;;;;;;;15.61;55.61;101410.77;1676660;85;20187;-76
2021/06/05 01:33:55;;;;;;;;;;;;;;;15.39;55.56;101409.10;1689984;84;20184;-76
2021/06/05 01:36:23;;;;;;;;;;;;;;;15.27;55.87;101408.08;1670055;85;20517;-76
2021/06/05 01:38:52;;;;;;;;;;;;;;;15.25;55.94;101397.69;1678394;84;20187;-76
2021/06/05 01:41:20;;;;;;;;;;;;;;;15.23;55.97;101392.52;1677989;85;20380;-77
2021/06/05 01:43:48;;;;;;;;;;;;;;;15.22;55.99;101400.36;1678247;85;20183;-77
2021/06/05 01:46:16;;;;;;;;;;;;;;;15.19;56.05;101399.98;1678775;84;20180;-77
2021/06/05 01:48:43;;;;;;;;;;;;;;;15.18;56.07;101396.11;1680283;84;20132;-77
2021/06/05 01:51:12;;;;;;;;;;;;;;;15.16;56.11;101402.66;1674898;85;20906;-77
2021/06/05 01:53:42;;;;;;;;;;;;;;;15.10;56.15;101399.33;1677609;85;20179;-76
2021/06/05 01:56:14;;;;;;;;;;;;;;;15.04;56.24;101396.89;1636247;86;20196;-76
2021/06/05 01:58:42;;;;;;;;;;;;;;;14.95;56.18;101401.85;1676618;84;20456;-76
2021/06/05 02:01:08;;;;;;;;;;;;;;;14.78;56.40;101395.70;1676733;84;20217;-76
2021/06/05 02:03:35;;;;;;;;;;;;;;;14.73;56.59;101397.53;1660913;85;20219;-76
2021/06/05 02:06:01;;;;;;;;;;;;;;;14.71;56.58;101397.16;1661376;84;20223;-76
2021/06/05 02:08:28;;;;;;;;;;;;;;;14.68;56.71;101402.42;1686649;83;20329;-76
2021/06/05 02:11:03;;;;;;;;;;;;;;;14.67;56.77;101404.16;1693390;83;20206;-76
2021/06/05 02:13:39;;;;;;;;;;;;;;;14.67;56.83;101398.96;1691854;84;20211;-77
2021/06/05 02:16:11;;;;;;;;;;;;;;;14.67;56.87;101398.10;1672869;84;20171;-77
2021/06/05 02:18:42;;;;;;;;;;;;;;;14.64;56.89;101396.42;1694108;84;20439;-77
2021/06/05 02:21:11;;;;;;;;;;;;;;;14.63;56.87;101395.15;1693198;83;20474;-77
2021/06/05 02:23:44;;;;;;;;;;;;;;;14.60;56.85;101399.11;1694069;84;20183;-77
2021/06/05 02:26:12;;;;;;;;;;;;;;;14.52;56.85;101393.65;1694577;84;20194;-77
2021/06/05 02:28:38;;;;;;;;;;;;;;;14.43;56.92;101396.43;1687887;83;20096;-77
2021/06/05 02:31:06;;;;;;;;;;;;;;;14.37;57.07;101393.91;1689455;83;20181;-77
2021/06/05 02:33:34;;;;;;;;;;;;;;;14.37;57.17;101398.25;1689338;83;20211;-77
2021/06/05 02:36:02;;;;;;;;;;;;;;;14.34;57.23;101393.97;1693844;84;20194;-77
2021/06/05 02:38:29;;;;;;;;;;;;;;;14.33;57.14;101396.16;1692750;83;20098;-77
2021/06/05 02:40:56;;;;;;;;;;;;;;;14.29;57.15;101394.50;1694340;84;20411;-77
2021/06/05 02:43:25;;;;;;;;;;;;;;;14.27;57.14;101392.81;1671453;84;20107;-77
2021/06/05 02:46:06;;;;;;;;;;;;;;;14.22;57.17;101391.16;1675986;84;20128;-77
2021/06/05 02:48:51;;;;;;;;;;;;;;;14.22;57.28;101388.99;1695241;83;20111;-77
2021/06/05 02:51:20;;;;;;;;;;;;;;;14.18;57.28;101386.03;1687088;84;20123;-77
2021/06/05 02:53:46;;;;;;;;;;;;;;;14.10;57.31;101383.57;1693499;83;20151;-77
2021/06/05 02:56:13;;;;;;;;;;;;;;;14.01;57.38;101386.37;1687289;83;20120;-77
2021/06/05 02:58:39;;;;;;;;;;;;;;;13.97;57.52;101373.45;1695229;84;20104;-77
2021/06/05 03:01:07;;;;;;;;;;;;;;;13.96;57.71;101375.63;1695767;84;20383;-77
2021/06/05 03:03:33;;;;;;;;;;;;;;;13.96;57.68;101380.83;1695933;83;20091;-77
2021/06/05 03:06:00;;;;;;;;;;;;;;;13.89;57.72;101380.08;1686840;84;20121;-77
2021/06/05 03:08:28;;;;;;;;;;;;;;;13.89;57.92;101378.78;1679516;84;20546;-77
2021/06/05 03:10:55;;;;;;;;;;;;;;;13.89;57.96;101377.03;1696531;84;20098;-77
2021/06/05 03:13:22;;;;;;;;;;;;;;;13.94;57.97;101373.06;1682252;83;20084;-77
2021/06/05 03:15:49;;;;;;;;;;;;;;;13.98;57.96;101373.86;1679077;85;20096;-77
2021/06/05 03:18:16;;;;;;;;;;;;;;;13.95;57.85;101370.88;1678010;84;20105;-77
2021/06/05 03:20:44;;;;;;;;;;;;;;;13.95;57.94;101371.31;1663860;85;20407;-77
2021/06/05 03:23:12;;;;;;;;;;;;;;;13.92;57.96;101381.33;1672660;84;20174;-77
2021/06/05 03:25:38;;;;;;;;;;;;;;;13.86;58.13;101382.29;1679304;84;20175;-76
2021/06/05 03:28:05;;;;;;;;;;;;;;;13.85;58.26;101372.78;1669729;85;20136;-77
2021/06/05 03:30:32;;;;;;;;;;;;;;;13.79;58.24;101363.78;1672040;85;20220;-77
2021/06/05 03:32:58;;;;;;;;;;;;;;;13.78;58.37;101372.46;1672635;84;20204;-77
2021/06/05 03:35:25;;;;;;;;;;;;;;;13.81;58.53;101373.71;1677619;85;20172;-77
2021/06/05 03:37:51;;;;;;;;;;;;;;;13.87;58.59;101372.75;1690014;84;20330;-77
2021/06/05 03:40:20;;;;;;;;;;;;;;;13.87;58.48;101370.15;1673659;84;20223;-77
2021/06/05 03:42:46;;;;;;;;;;;;;;;13.90;58.64;101368.80;1673926;84;20135;-77
2021/06/05 03:45:12;;;;;;;;;;;;;;;13.95;58.75;101368.27;1678049;85;20183;-77
2021/06/05 03:47:39;;;;;;;;;;;;;;;14.00;58.78;101370.34;1677609;85;20176;-77
2021/06/05 03:50:09;;;;;;;;;;;;;;;14.02;58.81;101367.72;1667526;85;20211;-77
2021/06/05 03:52:35;;;;;;;;;;;;;;;14.03;58.93;101369.44;1673046;84;20223;-77
2021/06/05 03:55:05;;;;;;;;;;;;;;;14.07;58.97;101372.36;1684657;84;20333;-77
2021/06/05 03:57:33;;;;;;;;;;;;;;;14.17;59.06;101377.81;1672038;85;20337;-77
2021/06/05 03:59:59;;;;;;;;;;;;;;;14.18;59.01;101380.83;1655644;85;20215;-77
2021/06/05 04:02:26;;;;;;;;;;;;;;;14.20;59.13;101373.86;1648509;85;20151;-77
2021/06/05 04:04:52;;;;;;;;;;;;;;;14.31;59.40;101377.56;1694666;84;20121;-77
2021/06/05 04:07:20;;;;;;;;;;;;;;;14.54;59.48;101380.61;1682392;85;20512;-77
2021/06/05 04:09:46;;;;;;;;;;;;;;;14.84;59.55;101374.73;1685644;83;20204;-77
2021/06/05 04:12:12;;;;;;;;;;;;;;;15.14;59.42;101373.63;1706606;83;20171;-77
2021/06/05 04:14:41;;;;;;;;;;;;;;;15.34;59.24;101371.86;1686146;83;20195;-76
2021/06/05 04:17:08;;;;;;;;;;;;;;;15.49;59.24;101369.75;1687904;84;20207;-76
2021/06/05 04:19:35;;;;;;;;;;;;;;;15.62;59.21;101361.64;1670562;85;20131;-76
2021/06/05 04:22:01;;;;;;;;;;;;;;;15.74;59.21;101362.19;1683918;83;20120;-76
2021/06/05 04:24:27;;;;;;;;;;;;;;;15.86;59.22;101359.27;1688318;83;20119;-76
2021/06/05 04:26:53;;;;;;;;;;;;;;;15.98;59.22;101361.15;1686896;85;20746;-77
2021/06/05 04:29:20;;;;;;;;;;;;;;;16.05;59.09;101362.25;1689544;83;20236;-77
2021/06/05 04:31:46;;;;;;;;;;;;;;;16.02;59.12;101366.25;1688392;85;20364;-76
2021/06/05 04:34:12;;;;;;;;;;;;;;;16.05;59.18;101362.70;1689026;84;20408;-76
2021/06/05 04:36:39;;;;;;;;;;;;;;;16.10;59.24;101367.34;1684258;83;20083;-77
2021/06/05 04:39:05;;;;;;;;;;;;;;;16.19;59.32;101361.85;1687935;85;20482;-77
2021/06/05 04:41:31;;;;;;;;;;;;;;;16.31;59.35;101357.60;1687691;83;20088;-77
2021/06/05 04:43:58;;;;;;;;;;;;;;;16.46;59.31;101361.54;1688521;85;20084;-77
2021/06/05 04:46:24;;;;;;;;;;;;;;;16.57;59.25;101359.48;1688482;83;21035;-77
2021/06/05 04:48:50;;;;;;;;;;;;;;;16.69;59.24;101360.44;1688310;83;20104;-77
2021/06/05 04:51:18;;;;;;;;;;;;;;;16.81;59.18;101364.44;1674730;85;20138;-77
2021/06/05 04:53:44;;;;;;;;;;;;;;;16.93;59.19;101364.08;1683677;83;20100;-77
2021/06/05 04:56:10;;;;;;;;;;;;;;;17.12;59.24;101360.00;1686598;83;20092;-77
2021/06/05 04:58:37;;;;;;;;;;;;;;;17.37;59.26;101363.12;1688701;83;20124;-77
2021/06/05 05:01:03;;;;;;;;;;;;;;;17.70;59.24;101355.48;1689138;85;20100;-77
2021/06/05 05:03:30;;;;;;;;;;;;;;;18.22;58.98;101358.88;1680806;84;20136;-77
2021/06/05 05:06:00;;;;;;;;;;;;;;;18.83;59.30;101363.17;1684495;84;20191;-77
2021/06/05 05:08:27;;;;;;;;;;;;;;;19.49;59.03;101362.72;1682388;83;20199;-76
2021/06/05 05:10:54;;;;;;;;;;;;;;;20.12;58.30;101363.55;1684004;84;20138;-76
2021/06/05 05:13:23;;;;;;;;;;;;;;;20.71;58.07;101360.02;1685270;85;20313;-76
2021/06/05 05:15:49;;;;;;;;;;;;;;;21.33;57.98;101357.48;1687511;83;20132;-76
2021/06/05 05:18:19;;;;;;;;;;;;;;;21.84;57.47;101354.00;1686126;83;20186;-76
2021/06/05 05:20:48;;;;;;;;;;;;;;;22.33;57.20;101358.92;1709974;82;20198;-76
2021/06/05 05:23:15;;;;;;;;;;;;;;;22.88;56.80;101361.65;1736849;82;20105;-76
2021/06/05 05:25:43;;;;;;;;;;;;;;;23.36;56.60;101364.17;1692715;83;20167;-76
2021/06/05 05:28:11;;;;;;;;;;;;;;;23.94;56.32;101363.84;1694245;83;20147;-76
2021/06/05 05:30:41;;;;;;;;;;;;;;;24.48;56.02;101368.05;1697335;83;20228;-76
2021/06/05 05:33:08;;;;;;;;;;;;;;;24.94;55.66;101371.30;1695846;83;20121;-76
2021/06/05 05:35:35;;;;;;;;;;;;;;;25.35;55.57;101372.11;1687042;84;20458;-77
2021/06/05 05:38:03;;;;;;;;;;;;;;;25.91;55.38;101379.41;1687282;84;20131;-77
2021/06/05 05:40:30;;;;;;;;;;;;;;;26.23;55.02;101374.52;1679792;83;20461;-77
2021/06/05 05:42:56;;;;;;;;;;;;;;;26.60;55.01;101373.26;1691195;83;20179;-77
2021/06/05 05:45:23;;;;;;;;;;;;;;;27.07;54.60;101381.79;1678307;83;20185;-77
2021/06/05 05:47:50;;;;;;;;;;;;;;;27.44;54.21;101373.77;1687986;83;20137;-77
2021/06/05 05:50:19;;;;;;;;;;;;;;;27.75;54.30;101374.97;1681752;83;20206;-77
2021/06/05 05:52:45;;;;;;;;;;;;;;;27.90;53.73;101379.13;1683908;83;20184;-77
2021/06/05 05:55:12;;;;;;;;;;;;;;;28.09;53.71;101386.50;1688010;83;20446;-77
2021/06/05 05:57:39;;;;;;;;;;;;;;;28.42;53.72;101387.05;1695505;83;20092;-77
2021/06/05 06:00:08;;;;;;;;;;;;;;;28.66;53.36;101388.59;1681995;83;20096;-77
2021/06/05 06:02:35;;;;;;;;;;;;;;;29.01;53.10;101382.77;1704472;83;20124;-77
2021/06/05 06:05:01;;;;;;;;;;;;;;;29.14;52.68;101384.27;1690616;83;20432;-77
2021/06/05 06:07:27;;;;;;;;;;;;;;;28.97;52.78;101383.50;1688550;83;20201;-77
2021/06/05 06:09:53;;;;;;;;;;;;;;;29.38;52.81;101379.23;1692626;83;20780;-77
2021/06/05 06:12:20;;;;;;;;;;;;;;;29.60;52.43;101377.34;1688610;83;20591;-77
2021/06/05 06:14:46;;;;;;;;;;;;;;;29.65;51.68;101385.77;1689409;83;20131;-77
2021/06/05 06:17:12;;;;;;;;;;;;;;;29.83;52.12;101394.53;1672600;83;20109;-77
2021/06/05 06:19:38;;;;;;;;;;;;;;;30.01;51.80;101386.81;1685524;83;20588;-77
2021/06/05 06:22:05;;;;;;;;;;;;;;;30.06;51.27;101389.94;1689759;83;20243;-77
2021/06/05 06:24:31;;;;;;;;;;;;;;;30.12;50.82;101387.59;1686793;83;20130;-78
2021/06/05 06:26:57;;;;;;;;;;;;;;;30.18;51.10;101388.36;1680790;83;20860;-77
2021/06/05 06:29:30;;;;;;;;;;;;;;;30.40;50.90;101395.36;1683054;83;20856;-77
2021/06/05 06:31:51;;;;;;;;;;;;;;;30.39;50.31;101396.34;1683659;83;20107;-78
2021/06/05 06:34:17;;;;;;;;;;;;;;;30.53;49.66;101397.31;1682174;83;20180;-78
2021/06/05 06:36:44;;;;;;;;;;;;;;;30.45;49.43;101398.47;1664407;85;20423;-78
2021/06/05 06:39:11;;;;;;;;;;;;;;;30.19;49.14;101399.39;1632171;86;20490;-78
2021/06/05 06:41:38;;;;;;;;;;;;;;;30.00;48.78;101395.31;1659797;85;20224;-78
2021/06/05 06:44:06;;;;;;;;;;;;;;;29.71;48.44;101397.73;1638448;86;20184;-78
2021/06/05 06:46:36;;;;;;;;;;;;;;;29.63;48.46;101393.57;1630292;85;20158;-78
2021/06/05 06:49:03;;;;;;;;;;;;;;;29.70;48.32;101392.53;1638221;85;20502;-78
2021/06/05 06:51:29;;;;;;;;;;;;;;;29.81;47.80;101397.33;1644858;86;20212;-79
2021/06/05 06:53:56;;;;;;;;;;;;;;;29.91;47.88;101399.57;1647058;86;20135;-79
2021/06/05 06:56:22;;;;;;;;;;;;;;;30.10;47.52;101399.37;1642491;86;20473;-79
2021/06/05 06:58:49;;;;;;;;;;;;;;;30.00;47.14;101397.13;1647426;85;20769;-77
2021/06/05 07:01:16;;;;;;;;;;;;;;;29.98;47.17;101393.23;1622234;86;20094;-75
2021/06/05 07:03:42;;;;;;;;;;;;;;;29.76;46.46;101399.53;1667166;85;20221;-75
2021/06/05 07:06:09;;;;;;;;;;;;;;;29.48;46.52;101398.84;1618202;86;20435;-75
2021/06/05 07:08:37;;;;;;;;;;;;;;;29.57;46.66;101395.41;1619857;86;20140;-76
2021/06/05 07:11:10;;;;;;;;;;;;;;;29.67;46.35;101394.13;1650759;85;20457;-76
2021/06/05 07:13:36;;;;;;;;;;;;;;;29.63;45.92;101392.23;1656624;85;20460;-76
2021/06/05 07:16:02;;;;;;;;;;;;;;;29.74;45.91;101395.30;1655640;85;20208;-76
2021/06/05 07:18:30;;;;;;;;;;;;;;;29.88;45.84;101385.65;1633376;86;20430;-76
2021/06/05 07:20:56;;;;;;;;;;;;;;;29.84;45.74;101391.73;1638956;85;20187;-76
2021/06/05 07:23:25;;;;;;;;;;;;;;;29.64;45.68;101385.41;1652013;85;20221;-76
2021/06/05 07:25:52;;;;;;;;;;;;;;;29.80;45.59;101384.12;1622288;86;20139;-76
2021/06/05 07:28:25;;;;;;;;;;;;;;;30.03;45.54;101380.86;1623220;86;20460;-76
2021/06/05 07:30:52;;;;;;;;;;;;;;;30.36;45.21;101378.41;1661665;85;20430;-76
2021/06/05 07:33:19;;;;;;;;;;;;;;;30.55;45.29;101380.67;1627541;86;20478;-76
2021/06/05 07:35:45;;;;;;;;;;;;;;;30.58;44.67;101386.27;1622218;86;20408;-76
2021/06/05 07:38:12;;;;;;;;;;;;;;;30.62;44.95;101386.34;1654927;85;20138;-78
2021/06/05 07:40:39;;;;;;;;;;;;;;;30.74;44.71;101385.72;1631195;86;20103;-77
2021/06/05 07:43:06;;;;;;;;;;;;;;;30.88;44.35;101387.52;1620900;86;20143;-77
2021/06/05 07:45:32;;;;;;;;;;;;;;;30.92;44.11;101380.92;1622630;86;20385;-77
2021/06/05 07:47:58;;;;;;;;;;;;;;;31.09;44.05;101382.08;1625515;86;20424;-78
2021/06/05 07:50:25;;;;;;;;;;;;;;;31.27;43.69;101380.41;1639480;85;20460;-78
2021/06/05 07:52:51;;;;;;;;;;;;;;;31.49;43.40;101391.81;1648640;85;20142;-78
2021/06/05 07:55:20;;;;;;;;;;;;;;;31.42;42.80;101394.70;1648309;85;20134;-78
2021/06/05 07:57:46;;;;;;;;;;;;;;;31.23;42.69;101389.69;1645348;85;20703;-77
2021/06/05 08:00:18;;;;;;;;;;;;;;;30.94;42.60;101395.47;1650278;85;20457;-77
2021/06/05 08:02:44;;;;;;;;;;;;;;;30.84;42.49;101387.92;1652847;85;20192;-77
2021/06/05 08:05:12;;;;;;;;;;;;;;;30.84;42.47;101380.77;1654314;86;20182;-80
2021/06/05 08:07:38;;;;;;;;;;;;;;;30.85;42.38;101382.94;1638123;86;20991;-79
2021/06/05 08:10:06;;;;;;;;;;;;;;;30.73;42.07;101380.88;1637999;86;20521;-81
2021/06/05 08:12:32;;;;;;;;;;;;;;;30.48;41.83;101377.34;1620412;86;20094;-79
2021/06/05 08:14:59;;;;;;;;;;;;;;;30.17;41.85;101378.67;1627443;86;20184;-79
2021/06/05 08:17:25;;;;;;;;;;;;;;;30.25;41.99;101374.00;1626924;86;20112;-79
2021/06/05 08:19:51;;;;;;;;;;;;;;;30.34;41.84;101379.03;1636518;86;20482;-79
2021/06/05 08:22:22;;;;;;;;;;;;;;;30.33;41.63;101372.00;1624574;86;20193;-79
2021/06/05 08:24:45;;;;;;;;;;;;;;;30.20;41.37;101371.73;1658707;85;20437;-79
2021/06/05 08:27:11;;;;;;;;;;;;;;;29.93;41.14;101368.77;1625333;86;20428;-79
2021/06/05 08:29:37;;;;;;;;;;;;;;;29.75;41.13;101373.84;1644529;85;20398;-79
2021/06/05 08:32:04;;;;;;;;;;;;;;;29.67;41.03;101366.98;1654168;86;20484;-79
2021/06/05 08:34:31;;;;;;;;;;;;;;;29.62;41.19;101367.89;1648720;85;20585;-80
2021/06/05 08:36:57;;;;;;;;;;;;;;;29.29;40.95;101368.84;1670858;84;20462;-80
2021/06/05 08:39:23;;;;;;;;;;;;;;;29.27;41.03;101363.64;1653918;85;20220;-81
2021/06/05 08:41:52;;;;;;;;;;;;;;;29.27;40.79;101355.65;1645889;86;20110;-80
2021/06/05 08:44:36;;;;;;;;;;;;;;;29.04;40.69;101359.88;1633504;85;20546;-80
2021/06/05 08:47:23;;;;;;;;;;;;;;;28.74;40.55;101357.84;1638308;85;20785;-78
2021/06/05 08:49:49;;;;;;;;;;;;;;;28.63;40.83;101353.38;1639810;85;20320;-77
2021/06/05 08:52:30;;;;;;;;;;;;;;;28.73;40.57;101349.02;1675380;85;20858;-77
2021/06/05 08:55:18;;;;;;;;;;;;;;;29.04;40.64;101353.22;1650295;86;20090;-75
2021/06/05 08:57:54;;;;;;;;;;;;;;;29.63;40.63;101344.26;1625784;85;20092;-77
2021/06/05 09:00:38;;;;;;;;;;;;;;;30.12;40.10;101350.73;1656501;85;20424;-76
2021/06/05 09:03:09;;;;;;;;;;;;;;;30.53;40.05;101347.08;1649636;86;20548;-75
2021/06/05 09:05:38;;;;;;;;;;;;;;;31.15;40.08;101352.66;1637591;85;20630;-76
2021/06/05 09:08:05;;;;;;;;;;;;;;;31.56;39.80;101360.36;1644105;85;20483;-76
2021/06/05 09:10:33;;;;;;;;;;;;;;;31.92;39.37;101353.41;1660213;85;20771;-76
2021/06/05 09:12:59;;;;;;;;;;;;;;;32.18;39.15;101357.62;1654966;85;20723;-76
2021/06/05 09:15:31;;;;;;;;;;;;;;;32.22;39.01;101356.86;1665893;85;20090;-75
2021/06/05 09:17:59;;;;;;;;;;;;;;;31.96;39.21;101351.28;1623475;87;20960;-79
2021/06/05 09:20:38;;;;;;;;;;;;;;;31.88;38.82;101345.31;1630841;87;20528;-76
2021/06/05 09:23:03;;;;;;;;;;;;;;;31.75;38.94;101346.13;1650184;85;20132;-75
2021/06/05 09:25:39;;;;;;;;;;;;;;;31.49;38.77;101347.20;1629723;86;20590;-75
2021/06/05 09:28:14;;;;;;;;;;;;;;;31.04;38.81;101350.08;1645369;85;20442;-75
2021/06/05 09:30:47;;;;;;;;;;;;;;;30.39;38.45;101337.63;1650693;85;20134;-75
2021/06/05 09:33:17;;;;;;;;;;;;;;;29.78;38.37;101345.59;1650262;86;20107;-75
2021/06/05 09:35:45;;;;;;;;;;;;;;;29.36;38.17;101339.88;1647081;85;20426;-75
2021/06/05 09:38:17;;;;;;;;;;;;;;;28.95;38.28;101338.35;1656921;86;20113;-75
2021/06/05 09:41:07;;;;;;;;;;;;;;;28.46;37.69;101348.59;1650785;86;20432;-75
2021/06/05 09:43:34;;;;;;;;;;;;;;;28.22;38.04;101342.91;1647111;86;20112;-75
2021/06/05 09:46:13;;;;;;;;;;;;;;;28.08;37.76;101344.44;1647984;85;20132;-75
2021/06/05 09:48:41;;;;;;;;;;;;;;;27.89;37.49;101342.39;1626333;86;20138;-75
2021/06/05 09:51:32;;;;;;;;;;;;;;;27.52;37.38;101331.54;1644682;86;20107;-75
2021/06/05 09:54:01;;;;;;;;;;;;;;;27.16;37.17;101328.02;1646361;85;20740;-75
2021/06/05 09:56:31;;;;;;;;;;;;;;;26.96;37.46;101328.19;1641381;85;20134;-75
2021/06/05 09:59:03;;;;;;;;;;;;;;;26.90;37.57;101329.92;1652680;85;20129;-75
2021/06/05 10:01:31;;;;;;;;;;;;;;;26.80;37.08;101338.19;1639699;86;20111;-75
2021/06/05 10:04:13;;;;;;;;;;;;;;;26.70;37.24;101336.67;1652853;85;20110;-75
2021/06/05 10:06:52;;;;;;;;;;;;;;;26.69;37.04;101336.78;1653140;85;20135;-75
2021/06/05 10:09:27;;;;;;;;;;;;;;;26.64;37.12;101338.45;1624422;85;20143;-75
2021/06/05 10:12:16;;;;;;;;;;;;;;;26.62;36.97;101335.53;1628297;86;20110;-75
2021/06/05 10:14:58;;;;;;;;;;;;;;;26.53;37.18;101331.73;1618076;86;20140;-75
2021/06/05 10:17:46;;;;;;;;;;;;;;;26.56;37.21;101326.69;1625404;86;20118;-75
2021/06/05 10:20:41;;;;;;;;;;;;;;;26.55;36.83;101331.63;1630021;86;20164;-75
2021/06/05 10:23:08;;;;;;;;;;;;;;;26.55;36.78;101328.48;1619111;86;20134;-75
2021/06/05 10:25:47;;;;;;;;;;;;;;;26.53;36.82;101328.23;1633897;86;20138;-75
2021/06/05 10:28:16;;;;;;;;;;;;;;;26.45;36.67;101320.00;1623077;86;20118;-75
2021/06/05 10:30:52;;;;;;;;;;;;;;;26.38;36.67;101327.06;1617415;86;20110;-75
2021/06/05 10:33:34;;;;;;;;;;;;;;;26.40;36.62;101324.78;1630826;86;20138;-75
2021/06/05 10:36:02;;;;;;;;;;;;;;;26.34;36.58;101320.28;1602046;87;20482;-75
2021/06/05 10:38:49;;;;;;;;;;;;;;;26.30;36.60;101325.41;1605078;88;20116;-75
2021/06/05 10:41:25;;;;;;;;;;;;;;;26.30;36.50;101325.41;1598395;88;20143;-76
2021/06/05 10:43:51;;;;;;;;;;;;;;;26.28;36.63;101327.80;1633970;86;20159;-75
2021/06/05 10:46:21;;;;;;;;;;;;;;;26.28;36.33;101325.98;1620742;86;20591;-75
2021/06/05 10:48:48;;;;;;;;;;;;;;;26.24;36.49;101325.83;1616786;86;20142;-76
2021/06/05 10:51:17;;;;;;;;;;;;;;;26.24;36.52;101325.83;1622674;86;20142;-76
2021/06/05 10:53:52;;;;;;;;;;;;;;;26.21;36.55;101328.70;1600816;88;20149;-75
2021/06/05 10:56:22;;;;;;;;;;;;;;;26.27;36.75;101327.42;1617936;86;20191;-76
2021/06/05 10:58:51;;;;;;;;;;;;;;;26.37;36.82;101325.84;1624042;86;20219;-74
2021/06/05 11:01:41;;;;;;;;;;;;;;;26.48;36.75;101328.59;1616836;86;20096;-74
2021/06/05 11:04:29;;;;;;;;;;;;;;;26.52;36.78;101329.19;1623753;86;20180;-74
2021/06/05 11:07:04;;;;;;;;;;;;;;;26.53;36.67;101330.41;1620317;86;20181;-74
2021/06/05 11:09:35;;;;;;;;;;;;;;;26.54;36.72;101324.63;1630281;84;20185;-74
2021/06/05 11:12:14;;;;;;;;;;;;;;;26.55;36.70;101331.63;1679872;84;20091;-74
2021/06/05 11:14:46;;;;;;;;;;;;;;;26.56;36.72;101329.34;1665437;84;20111;-74
2021/06/05 11:17:32;;;;;;;;;;;;;;;26.56;36.48;101320.91;1673389;84;20147;-74
2021/06/05 11:20:08;;;;;;;;;;;;;;;26.57;36.62;101331.87;1659781;84;20198;-74
2021/06/05 11:22:59;;;;;;;;;;;;;;;26.61;36.45;101328.53;1680483;84;20207;-74
2021/06/05 11:25:33;;;;;;;;;;;;;;;26.62;36.52;101318.28;1683331;84;20191;-74
2021/06/05 11:28:21;;;;;;;;;;;;;;;26.68;36.42;101325.80;1666654;84;20182;-74
2021/06/05 11:30:48;;;;;;;;;;;;;;;26.60;36.34;101314.42;1685774;83;20608;-74
2021/06/05 11:33:34;;;;;;;;;;;;;;;26.65;36.57;101315.41;1683022;84;20216;-74
2021/06/05 11:36:02;;;;;;;;;;;;;;;26.75;36.44;101308.96;1675203;84;20175;-75
2021/06/05 11:38:34;;;;;;;;;;;;;;;26.88;36.32;101310.61;1661679;84;20249;-74
2021/06/05 11:41:12;;;;;;;;;;;;;;;27.02;36.47;101312.28;1659585;84;20218;-76
2021/06/05 11:43:49;;;;;;;;;;;;;;;27.16;36.42;101312.56;1649720;85;20189;-75
2021/06/05 11:46:24;;;;;;;;;;;;;;;27.27;36.34;101303.31;1659017;84;20128;-75
2021/06/05 11:48:54;;;;;;;;;;;;;;;27.27;36.20;101304.16;1666637;84;20103;-75
2021/06/05 11:51:25;;;;;;;;;;;;;;;27.24;36.36;101302.22;1671918;84;20195;-74
2021/06/05 11:53:54;;;;;;;;;;;;;;;27.22;36.30;101304.14;1673287;84;20128;-75
2021/06/05 11:56:35;;;;;;;;;;;;;;;27.22;36.29;101302.81;1674044;84;20110;-75
2021/06/05 11:59:08;;;;;;;;;;;;;;;27.29;36.25;101291.61;1662789;84;20131;-75
2021/06/05 12:01:35;;;;;;;;;;;;;;;27.33;36.21;101289.09;1658699;84;20119;-75
2021/06/05 12:04:07;;;;;;;;;;;;;;;27.28;35.86;101285.09;1674851;84;20215;-75
2021/06/05 12:06:40;;;;;;;;;;;;;;;27.26;35.96;101287.02;1637587;86;20110;-75
2021/06/05 12:09:14;;;;;;;;;;;;;;;27.27;35.83;101286.05;1672000;84;20103;-75
2021/06/05 12:11:48;;;;;;;;;;;;;;;27.21;35.88;101287.84;1679020;83;638258;-75
2021/06/05 12:15:00;;;;;;;;;;;;;;;27.18;35.80;101280.95;1699921;83;20133;-75
2021/06/05 12:17:06;;;;;;;;;;;;;;;27.20;36.03;101282.16;1678959;83;20165;-75
2021/06/05 12:19:34;;;;;;;;;;;;;;;27.20;35.91;101294.96;1644971;85;20126;-74
2021/06/05 12:22:18;;;;;;;;;;;;;;;27.20;35.79;101283.02;1661732;84;20109;-74
2021/06/05 12:24:48;;;;;;;;;;;;;;;27.24;36.04;101280.97;1649986;85;20139;-74
2021/06/05 12:27:30;;;;;;;;;;;;;;;27.22;35.61;101289.53;1629306;86;20152;-74
2021/06/05 12:30:17;;;;;;;;;;;;;;;27.13;35.51;101284.91;1642242;86;20157;-74
2021/06/05 12:33:04;;;;;;;;;;;;;;;27.09;35.59;101282.97;1636354;86;20144;-74
2021/06/05 12:35:39;;;;;;;;;;;;;;;27.01;35.36;101278.26;1653718;85;20099;-74
2021/06/05 12:38:08;;;;;;;;;;;;;;;26.99;35.65;101278.85;1650906;85;20098;-74
2021/06/05 12:40:40;;;;;;;;;;;;;;;26.99;35.37;101277.52;1652064;84;20138;-75
2021/06/05 12:43:09;;;;;;;;;;;;;;;26.97;35.46;101269.31;1650114;85;20130;-75
2021/06/05 12:45:37;;;;;;;;;;;;;;;26.87;35.35;101265.13;1643298;86;20088;-74
2021/06/05 12:48:05;;;;;;;;;;;;;;;26.76;35.48;101262.41;1648264;85;20142;-74
2021/06/05 12:50:34;;;;;;;;;;;;;;;26.79;35.52;101260.86;1665039;85;20122;-74